sensor_id;sensor_type;location;lat;lon;timestamp;P1;durP1;ratioP1;P2;durP2;ratioP2
10894;SDS011;5500;49.886;8.074;2023-03-23T00:01:16;1.40;;;0.97;;
10894;SDS011;5500;49.886;8.074;2023-03-23T00:03:45;1.13;;;1.00;;
10894;SDS011;5500;49.886;8.074;2023-03-23T00:06:13;1.10;;;1.00;;
10894;SDS011;5500;49.886;8.074;2023-03-23T00:08:43;2.40;;;1.03;;
10894;SDS011;5500;49.886;8.074;2023-03-23T00:11:11;1.47;;;1.20;;
10894;SDS011;5500;49.886;8.074;2023-03-23T00:13:40;3.33;;;1.10;;
10894;SDS011;5500;49.886;8.074;2023-03-23T00:16:08;1.13;;;1.00;;
10894;SDS011;5500;49.886;8.074;2023-03-23T00:18:42;1.63;;;0.90;;
10894;SDS011;5500;49.886;8.074;2023-03-23T00:21:09;1.23;;;1.10;;
10894;SDS011;5500;49.886;8.074;2023-03-23T00:23:37;1.13;;;1.03;;
10894;SDS011;5500;49.886;8.074;2023-03-23T00:26:04;0.83;;;0.83;;
10894;SDS011;5500;49.886;8.074;2023-03-23T00:28:31;4.27;;;1.17;;
10894;SDS011;5500;49.886;8.074;2023-03-23T00:30:58;1.07;;;0.97;;
10894;SDS011;5500;49.886;8.074;2023-03-23T00:33:26;0.90;;;0.80;;
10894;SDS011;5500;49.886;8.074;2023-03-23T00:35:54;2.13;;;0.97;;
10894;SDS011;5500;49.886;8.074;2023-03-23T00:38:22;1.37;;;1.10;;
10894;SDS011;5500;49.886;8.074;2023-03-23T00:40:51;1.00;;;0.90;;
10894;SDS011;5500;49.886;8.074;2023-03-23T00:43:19;1.37;;;0.90;;
10894;SDS011;5500;49.886;8.074;2023-03-23T00:45:49;1.13;;;1.00;;
10894;SDS011;5500;49.886;8.074;2023-03-23T00:48:17;0.80;;;0.80;;
10894;SDS011;5500;49.886;8.074;2023-03-23T00:50:44;1.10;;;1.00;;
10894;SDS011;5500;49.886;8.074;2023-03-23T00:53:11;1.03;;;0.93;;
10894;SDS011;5500;49.886;8.074;2023-03-23T00:55:40;1.07;;;0.80;;
10894;SDS011;5500;49.886;8.074;2023-03-23T00:58:09;1.00;;;0.83;;
10894;SDS011;5500;49.886;8.074;2023-03-23T01:00:36;1.27;;;1.10;;
10894;SDS011;5500;49.886;8.074;2023-03-23T01:03:03;1.27;;;1.07;;
10894;SDS011;5500;49.886;8.074;2023-03-23T01:05:33;3.23;;;1.40;;
10894;SDS011;5500;49.886;8.074;2023-03-23T01:08:00;2.33;;;0.90;;
10894;SDS011;5500;49.886;8.074;2023-03-23T01:10:28;1.63;;;1.00;;
10894;SDS011;5500;49.886;8.074;2023-03-23T01:12:57;1.60;;;1.10;;
10894;SDS011;5500;49.886;8.074;2023-03-23T01:15:26;1.47;;;1.27;;
10894;SDS011;5500;49.886;8.074;2023-03-23T01:17:53;0.90;;;0.80;;
10894;SDS011;5500;49.886;8.074;2023-03-23T01:20:20;1.57;;;1.10;;
10894;SDS011;5500;49.886;8.074;2023-03-23T01:22:47;2.03;;;1.13;;
10894;SDS011;5500;49.886;8.074;2023-03-23T01:25:13;4.23;;;1.40;;
10894;SDS011;5500;49.886;8.074;2023-03-23T01:27:41;1.57;;;1.10;;
10894;SDS011;5500;49.886;8.074;2023-03-23T01:30:08;1.10;;;1.00;;
10894;SDS011;5500;49.886;8.074;2023-03-23T01:32:38;1.27;;;1.17;;
10894;SDS011;5500;49.886;8.074;2023-03-23T01:35:05;2.60;;;1.00;;
10894;SDS011;5500;49.886;8.074;2023-03-23T01:37:32;2.67;;;1.00;;
10894;SDS011;5500;49.886;8.074;2023-03-23T01:40:01;1.20;;;1.03;;
10894;SDS011;5500;49.886;8.074;2023-03-23T01:42:29;0.70;;;0.70;;
10894;SDS011;5500;49.886;8.074;2023-03-23T01:47:57;1.57;;;1.10;;
10894;SDS011;5500;49.886;8.074;2023-03-23T01:50:28;1.13;;;1.03;;
10894;SDS011;5500;49.886;8.074;2023-03-23T01:52:56;1.63;;;1.00;;
10894;SDS011;5500;49.886;8.074;2023-03-23T01:55:24;1.03;;;0.90;;
10894;SDS011;5500;49.886;8.074;2023-03-23T01:57:53;1.10;;;1.00;;
10894;SDS011;5500;49.886;8.074;2023-03-23T02:00:21;0.97;;;0.97;;
10894;SDS011;5500;49.886;8.074;2023-03-23T02:02:48;1.10;;;1.00;;
10894;SDS011;5500;49.886;8.074;2023-03-23T02:05:19;2.00;;;1.03;;
10894;SDS011;5500;49.886;8.074;2023-03-23T02:07:48;1.20;;;1.00;;
10894;SDS011;5500;49.886;8.074;2023-03-23T02:10:16;0.70;;;0.70;;
10894;SDS011;5500;49.886;8.074;2023-03-23T02:12:43;2.53;;;1.10;;
10894;SDS011;5500;49.886;8.074;2023-03-23T02:15:10;1.27;;;1.10;;
10894;SDS011;5500;49.886;8.074;2023-03-23T02:17:38;1.40;;;1.00;;
10894;SDS011;5500;49.886;8.074;2023-03-23T02:20:19;1.43;;;1.23;;
10894;SDS011;5500;49.886;8.074;2023-03-23T02:23:13;0.90;;;0.80;;
10894;SDS011;5500;49.886;8.074;2023-03-23T02:26:11;1.80;;;1.40;;
10894;SDS011;5500;49.886;8.074;2023-03-23T02:28:54;1.13;;;0.90;;
10894;SDS011;5500;49.886;8.074;2023-03-23T02:31:31;2.03;;;1.03;;
10894;SDS011;5500;49.886;8.074;2023-03-23T02:34:08;1.40;;;1.00;;
10894;SDS011;5500;49.886;8.074;2023-03-23T02:36:38;1.63;;;1.17;;
10894;SDS011;5500;49.886;8.074;2023-03-23T02:39:09;2.17;;;0.97;;
10894;SDS011;5500;49.886;8.074;2023-03-23T02:41:38;2.03;;;1.40;;
10894;SDS011;5500;49.886;8.074;2023-03-23T02:44:06;1.77;;;1.50;;
10894;SDS011;5500;49.886;8.074;2023-03-23T02:46:33;1.90;;;1.43;;
10894;SDS011;5500;49.886;8.074;2023-03-23T02:49:02;2.20;;;1.07;;
10894;SDS011;5500;49.886;8.074;2023-03-23T02:51:32;1.37;;;1.27;;
10894;SDS011;5500;49.886;8.074;2023-03-23T02:54:00;1.23;;;1.10;;
10894;SDS011;5500;49.886;8.074;2023-03-23T02:56:27;1.67;;;1.20;;
10894;SDS011;5500;49.886;8.074;2023-03-23T02:58:55;2.07;;;1.00;;
10894;SDS011;5500;49.886;8.074;2023-03-23T03:01:46;2.40;;;1.13;;
10894;SDS011;5500;49.886;8.074;2023-03-23T03:04:15;1.50;;;1.23;;
10894;SDS011;5500;49.886;8.074;2023-03-23T03:06:47;1.13;;;1.00;;
10894;SDS011;5500;49.886;8.074;2023-03-23T03:09:20;2.43;;;1.23;;
10894;SDS011;5500;49.886;8.074;2023-03-23T03:12:02;1.40;;;1.30;;
10894;SDS011;5500;49.886;8.074;2023-03-23T03:14:33;2.17;;;1.37;;
10894;SDS011;5500;49.886;8.074;2023-03-23T03:17:04;1.83;;;1.30;;
10894;SDS011;5500;49.886;8.074;2023-03-23T03:19:33;2.47;;;1.23;;
10894;SDS011;5500;49.886;8.074;2023-03-23T03:22:03;1.97;;;1.20;;
10894;SDS011;5500;49.886;8.074;2023-03-23T03:24:30;1.20;;;1.10;;
10894;SDS011;5500;49.886;8.074;2023-03-23T03:26:58;1.40;;;1.23;;
10894;SDS011;5500;49.886;8.074;2023-03-23T03:29:26;1.57;;;1.10;;
10894;SDS011;5500;49.886;8.074;2023-03-23T03:31:56;2.87;;;1.07;;
10894;SDS011;5500;49.886;8.074;2023-03-23T03:34:23;1.30;;;1.20;;
10894;SDS011;5500;49.886;8.074;2023-03-23T03:36:51;2.73;;;1.43;;
10894;SDS011;5500;49.886;8.074;2023-03-23T03:39:20;1.40;;;1.13;;
10894;SDS011;5500;49.886;8.074;2023-03-23T03:41:47;1.70;;;1.40;;
10894;SDS011;5500;49.886;8.074;2023-03-23T03:44:14;4.63;;;1.07;;
10894;SDS011;5500;49.886;8.074;2023-03-23T03:46:41;3.63;;;1.37;;
10894;SDS011;5500;49.886;8.074;2023-03-23T03:49:08;3.50;;;1.27;;
10894;SDS011;5500;49.886;8.074;2023-03-23T03:51:35;3.17;;;1.40;;
10894;SDS011;5500;49.886;8.074;2023-03-23T03:54:02;1.10;;;1.00;;
10894;SDS011;5500;49.886;8.074;2023-03-23T03:56:30;1.73;;;1.30;;
10894;SDS011;5500;49.886;8.074;2023-03-23T03:59:00;1.50;;;1.40;;
10894;SDS011;5500;49.886;8.074;2023-03-23T04:01:27;1.30;;;1.20;;
10894;SDS011;5500;49.886;8.074;2023-03-23T04:03:54;1.33;;;1.10;;
10894;SDS011;5500;49.886;8.074;2023-03-23T04:06:21;2.83;;;1.40;;
10894;SDS011;5500;49.886;8.074;2023-03-23T04:08:48;1.67;;;1.40;;
10894;SDS011;5500;49.886;8.074;2023-03-23T04:11:15;1.23;;;1.10;;
10894;SDS011;5500;49.886;8.074;2023-03-23T04:13:43;1.33;;;1.23;;
10894;SDS011;5500;49.886;8.074;2023-03-23T04:16:09;5.60;;;1.50;;
10894;SDS011;5500;49.886;8.074;2023-03-23T04:18:36;1.17;;;1.07;;
10894;SDS011;5500;49.886;8.074;2023-03-23T04:21:03;1.30;;;1.20;;
10894;SDS011;5500;49.886;8.074;2023-03-23T04:23:32;1.77;;;1.43;;
10894;SDS011;5500;49.886;8.074;2023-03-23T04:26:00;1.30;;;1.20;;
10894;SDS011;5500;49.886;8.074;2023-03-23T04:28:28;1.70;;;1.37;;
10894;SDS011;5500;49.886;8.074;2023-03-23T04:31:00;1.93;;;1.60;;
10894;SDS011;5500;49.886;8.074;2023-03-23T04:33:28;3.17;;;1.30;;
10894;SDS011;5500;49.886;8.074;2023-03-23T04:35:55;1.40;;;1.30;;
10894;SDS011;5500;49.886;8.074;2023-03-23T04:38:23;1.57;;;1.30;;
10894;SDS011;5500;49.886;8.074;2023-03-23T04:40:51;1.73;;;1.30;;
10894;SDS011;5500;49.886;8.074;2023-03-23T04:43:19;1.80;;;1.30;;
10894;SDS011;5500;49.886;8.074;2023-03-23T04:45:47;2.60;;;1.40;;
10894;SDS011;5500;49.886;8.074;2023-03-23T04:48:22;1.57;;;1.13;;
10894;SDS011;5500;49.886;8.074;2023-03-23T04:50:49;1.53;;;1.30;;
10894;SDS011;5500;49.886;8.074;2023-03-23T04:53:16;2.10;;;1.57;;
10894;SDS011;5500;49.886;8.074;2023-03-23T04:55:43;2.27;;;1.67;;
10894;SDS011;5500;49.886;8.074;2023-03-23T04:58:10;1.60;;;1.40;;
10894;SDS011;5500;49.886;8.074;2023-03-23T05:00:40;1.77;;;1.53;;
10894;SDS011;5500;49.886;8.074;2023-03-23T05:03:08;1.47;;;1.30;;
10894;SDS011;5500;49.886;8.074;2023-03-23T05:05:36;3.07;;;1.67;;
10894;SDS011;5500;49.886;8.074;2023-03-23T05:08:05;2.00;;;1.40;;
10894;SDS011;5500;49.886;8.074;2023-03-23T05:10:32;1.87;;;1.40;;
10894;SDS011;5500;49.886;8.074;2023-03-23T05:12:58;2.53;;;1.80;;
10894;SDS011;5500;49.886;8.074;2023-03-23T05:15:25;1.83;;;1.43;;
10894;SDS011;5500;49.886;8.074;2023-03-23T05:17:51;1.40;;;1.30;;
10894;SDS011;5500;49.886;8.074;2023-03-23T05:20:18;2.50;;;1.20;;
10894;SDS011;5500;49.886;8.074;2023-03-23T05:22:47;1.53;;;1.40;;
10894;SDS011;5500;49.886;8.074;2023-03-23T05:25:14;1.77;;;1.50;;
10894;SDS011;5500;49.886;8.074;2023-03-23T05:27:44;1.87;;;1.63;;
10894;SDS011;5500;49.886;8.074;2023-03-23T05:30:14;2.03;;;1.53;;
10894;SDS011;5500;49.886;8.074;2023-03-23T05:32:42;2.80;;;1.50;;
10894;SDS011;5500;49.886;8.074;2023-03-23T05:35:10;2.67;;;1.50;;
10894;SDS011;5500;49.886;8.074;2023-03-23T05:37:38;1.60;;;1.50;;
10894;SDS011;5500;49.886;8.074;2023-03-23T05:40:06;1.87;;;1.67;;
10894;SDS011;5500;49.886;8.074;2023-03-23T05:42:34;1.70;;;1.40;;
10894;SDS011;5500;49.886;8.074;2023-03-23T05:45:01;2.83;;;1.47;;
10894;SDS011;5500;49.886;8.074;2023-03-23T05:47:28;3.33;;;1.50;;
10894;SDS011;5500;49.886;8.074;2023-03-23T05:49:55;2.93;;;1.60;;
10894;SDS011;5500;49.886;8.074;2023-03-23T05:52:22;1.73;;;1.30;;
10894;SDS011;5500;49.886;8.074;2023-03-23T05:54:50;3.77;;;1.77;;
10894;SDS011;5500;49.886;8.074;2023-03-23T05:57:18;1.43;;;1.33;;
10894;SDS011;5500;49.886;8.074;2023-03-23T05:59:46;1.67;;;1.57;;
10894;SDS011;5500;49.886;8.074;2023-03-23T06:02:13;2.30;;;1.57;;
10894;SDS011;5500;49.886;8.074;2023-03-23T06:04:40;1.77;;;1.50;;
10894;SDS011;5500;49.886;8.074;2023-03-23T06:07:07;2.77;;;1.70;;
10894;SDS011;5500;49.886;8.074;2023-03-23T06:09:37;2.77;;;1.50;;
10894;SDS011;5500;49.886;8.074;2023-03-23T06:12:04;2.53;;;1.57;;
10894;SDS011;5500;49.886;8.074;2023-03-23T06:14:32;2.70;;;1.73;;
10894;SDS011;5500;49.886;8.074;2023-03-23T06:16:59;1.70;;;1.60;;
10894;SDS011;5500;49.886;8.074;2023-03-23T06:19:26;1.97;;;1.50;;
10894;SDS011;5500;49.886;8.074;2023-03-23T06:21:53;2.93;;;1.87;;
10894;SDS011;5500;49.886;8.074;2023-03-23T06:24:20;2.47;;;1.63;;
10894;SDS011;5500;49.886;8.074;2023-03-23T06:26:47;4.57;;;2.13;;
10894;SDS011;5500;49.886;8.074;2023-03-23T06:29:15;3.17;;;1.90;;
10894;SDS011;5500;49.886;8.074;2023-03-23T06:31:44;2.43;;;2.00;;
10894;SDS011;5500;49.886;8.074;2023-03-23T06:34:12;1.93;;;1.80;;
10894;SDS011;5500;49.886;8.074;2023-03-23T06:36:39;3.40;;;2.30;;
10894;SDS011;5500;49.886;8.074;2023-03-23T06:39:08;4.33;;;2.60;;
10894;SDS011;5500;49.886;8.074;2023-03-23T06:41:35;2.53;;;1.90;;
10894;SDS011;5500;49.886;8.074;2023-03-23T06:44:02;3.37;;;1.80;;
10894;SDS011;5500;49.886;8.074;2023-03-23T06:46:29;3.13;;;2.00;;
10894;SDS011;5500;49.886;8.074;2023-03-23T06:48:57;3.97;;;2.10;;
10894;SDS011;5500;49.886;8.074;2023-03-23T06:51:23;1.90;;;1.70;;
10894;SDS011;5500;49.886;8.074;2023-03-23T06:53:50;4.47;;;2.27;;
10894;SDS011;5500;49.886;8.074;2023-03-23T06:56:17;2.83;;;2.00;;
10894;SDS011;5500;49.886;8.074;2023-03-23T06:58:43;4.23;;;2.10;;
10894;SDS011;5500;49.886;8.074;2023-03-23T07:01:11;1.73;;;1.50;;
10894;SDS011;5500;49.886;8.074;2023-03-23T07:03:37;1.87;;;1.63;;
10894;SDS011;5500;49.886;8.074;2023-03-23T07:06:07;4.13;;;1.90;;
10894;SDS011;5500;49.886;8.074;2023-03-23T07:08:35;3.13;;;1.80;;
10894;SDS011;5500;49.886;8.074;2023-03-23T07:11:02;3.53;;;2.10;;
10894;SDS011;5500;49.886;8.074;2023-03-23T07:13:29;4.50;;;1.80;;
10894;SDS011;5500;49.886;8.074;2023-03-23T07:15:55;2.33;;;1.83;;
10894;SDS011;5500;49.886;8.074;2023-03-23T07:18:23;2.83;;;1.80;;
10894;SDS011;5500;49.886;8.074;2023-03-23T07:20:50;4.50;;;1.93;;
10894;SDS011;5500;49.886;8.074;2023-03-23T07:23:18;3.00;;;2.00;;
10894;SDS011;5500;49.886;8.074;2023-03-23T07:25:45;4.47;;;1.70;;
10894;SDS011;5500;49.886;8.074;2023-03-23T07:28:13;3.40;;;2.20;;
10894;SDS011;5500;49.886;8.074;2023-03-23T07:30:40;4.10;;;2.10;;
10894;SDS011;5500;49.886;8.074;2023-03-23T07:33:07;3.73;;;2.00;;
10894;SDS011;5500;49.886;8.074;2023-03-23T07:35:35;3.33;;;2.10;;
10894;SDS011;5500;49.886;8.074;2023-03-23T07:38:02;14.97;;;2.47;;
10894;SDS011;5500;49.886;8.074;2023-03-23T07:40:31;2.03;;;1.83;;
10894;SDS011;5500;49.886;8.074;2023-03-23T07:42:59;2.23;;;1.90;;
10894;SDS011;5500;49.886;8.074;2023-03-23T07:45:26;2.40;;;1.63;;
10894;SDS011;5500;49.886;8.074;2023-03-23T07:47:53;2.33;;;1.90;;
10894;SDS011;5500;49.886;8.074;2023-03-23T07:50:20;2.87;;;2.07;;
10894;SDS011;5500;49.886;8.074;2023-03-23T07:52:49;3.77;;;2.07;;
10894;SDS011;5500;49.886;8.074;2023-03-23T07:55:16;1.83;;;1.73;;
10894;SDS011;5500;49.886;8.074;2023-03-23T07:57:44;2.70;;;1.97;;
10894;SDS011;5500;49.886;8.074;2023-03-23T08:00:12;4.17;;;1.90;;
10894;SDS011;5500;49.886;8.074;2023-03-23T08:02:44;2.00;;;1.80;;
10894;SDS011;5500;49.886;8.074;2023-03-23T08:05:11;2.70;;;1.80;;
10894;SDS011;5500;49.886;8.074;2023-03-23T08:07:39;2.57;;;1.63;;
10894;SDS011;5500;49.886;8.074;2023-03-23T08:10:06;2.77;;;2.00;;
10894;SDS011;5500;49.886;8.074;2023-03-23T08:12:36;3.73;;;1.70;;
10894;SDS011;5500;49.886;8.074;2023-03-23T08:15:05;2.00;;;1.77;;
10894;SDS011;5500;49.886;8.074;2023-03-23T08:17:33;3.67;;;1.70;;
10894;SDS011;5500;49.886;8.074;2023-03-23T08:20:00;2.17;;;1.50;;
10894;SDS011;5500;49.886;8.074;2023-03-23T08:22:35;4.60;;;1.67;;
10894;SDS011;5500;49.886;8.074;2023-03-23T08:25:01;3.10;;;1.70;;
10894;SDS011;5500;49.886;8.074;2023-03-23T08:27:28;1.67;;;1.57;;
10894;SDS011;5500;49.886;8.074;2023-03-23T08:29:55;3.57;;;1.40;;
10894;SDS011;5500;49.886;8.074;2023-03-23T08:32:23;1.50;;;1.40;;
10894;SDS011;5500;49.886;8.074;2023-03-23T08:34:50;2.33;;;1.73;;
10894;SDS011;5500;49.886;8.074;2023-03-23T08:37:17;1.77;;;1.40;;
10894;SDS011;5500;49.886;8.074;2023-03-23T08:39:43;2.00;;;1.60;;
10894;SDS011;5500;49.886;8.074;2023-03-23T08:42:10;1.80;;;1.70;;
10894;SDS011;5500;49.886;8.074;2023-03-23T08:44:37;1.60;;;1.20;;
10894;SDS011;5500;49.886;8.074;2023-03-23T08:47:04;2.27;;;1.50;;
10894;SDS011;5500;49.886;8.074;2023-03-23T08:49:33;3.00;;;1.47;;
10894;SDS011;5500;49.886;8.074;2023-03-23T08:52:00;1.93;;;1.40;;
10894;SDS011;5500;49.886;8.074;2023-03-23T08:54:26;1.30;;;1.20;;
10894;SDS011;5500;49.886;8.074;2023-03-23T08:56:55;1.00;;;1.00;;
10894;SDS011;5500;49.886;8.074;2023-03-23T08:59:25;1.43;;;1.33;;
10894;SDS011;5500;49.886;8.074;2023-03-23T09:01:52;1.13;;;1.00;;
10894;SDS011;5500;49.886;8.074;2023-03-23T09:04:19;0.80;;;0.80;;
10894;SDS011;5500;49.886;8.074;2023-03-23T09:06:47;1.67;;;1.10;;
10894;SDS011;5500;49.886;8.074;2023-03-23T09:09:14;2.20;;;1.33;;
10894;SDS011;5500;49.886;8.074;2023-03-23T09:11:40;1.20;;;1.07;;
10894;SDS011;5500;49.886;8.074;2023-03-23T09:14:07;0.80;;;0.80;;
10894;SDS011;5500;49.886;8.074;2023-03-23T09:16:34;1.07;;;0.93;;
10894;SDS011;5500;49.886;8.074;2023-03-23T09:19:01;1.67;;;1.07;;
10894;SDS011;5500;49.886;8.074;2023-03-23T09:21:28;3.17;;;1.40;;
10894;SDS011;5500;49.886;8.074;2023-03-23T09:23:56;1.30;;;1.20;;
10894;SDS011;5500;49.886;8.074;2023-03-23T09:26:24;1.33;;;1.10;;
10894;SDS011;5500;49.886;8.074;2023-03-23T09:28:51;1.10;;;1.00;;
10894;SDS011;5500;49.886;8.074;2023-03-23T09:31:18;1.13;;;1.03;;
10894;SDS011;5500;49.886;8.074;2023-03-23T09:33:45;0.70;;;0.70;;
10894;SDS011;5500;49.886;8.074;2023-03-23T09:36:12;1.57;;;1.00;;
10894;SDS011;5500;49.886;8.074;2023-03-23T09:38:41;2.00;;;1.17;;
10894;SDS011;5500;49.886;8.074;2023-03-23T09:41:12;1.93;;;1.10;;
10894;SDS011;5500;49.886;8.074;2023-03-23T09:43:57;2.07;;;0.90;;
10894;SDS011;5500;49.886;8.074;2023-03-23T09:46:35;3.37;;;1.17;;
10894;SDS011;5500;49.886;8.074;2023-03-23T09:49:08;1.67;;;1.10;;
10894;SDS011;5500;49.886;8.074;2023-03-23T09:51:40;2.17;;;1.30;;
10894;SDS011;5500;49.886;8.074;2023-03-23T09:54:10;1.87;;;1.17;;
10894;SDS011;5500;49.886;8.074;2023-03-23T09:56:41;1.43;;;1.33;;
10894;SDS011;5500;49.886;8.074;2023-03-23T09:59:10;1.43;;;1.30;;
10894;SDS011;5500;49.886;8.074;2023-03-23T10:01:41;1.30;;;1.10;;
10894;SDS011;5500;49.886;8.074;2023-03-23T10:04:12;2.53;;;1.30;;
10894;SDS011;5500;49.886;8.074;2023-03-23T10:06:42;1.47;;;1.30;;
10894;SDS011;5500;49.886;8.074;2023-03-23T10:09:09;1.10;;;1.00;;
10894;SDS011;5500;49.886;8.074;2023-03-23T10:11:45;2.13;;;1.10;;
10894;SDS011;5500;49.886;8.074;2023-03-23T10:14:19;1.33;;;1.10;;
10894;SDS011;5500;49.886;8.074;2023-03-23T10:16:55;1.83;;;1.03;;
10894;SDS011;5500;49.886;8.074;2023-03-23T10:19:28;2.40;;;1.13;;
10894;SDS011;5500;49.886;8.074;2023-03-23T10:22:08;1.23;;;1.00;;
10894;SDS011;5500;49.886;8.074;2023-03-23T10:24:38;4.97;;;1.20;;
10894;SDS011;5500;49.886;8.074;2023-03-23T10:27:13;1.07;;;1.00;;
10894;SDS011;5500;49.886;8.074;2023-03-23T10:29:47;3.10;;;1.30;;
10894;SDS011;5500;49.886;8.074;2023-03-23T10:32:18;1.07;;;0.97;;
10894;SDS011;5500;49.886;8.074;2023-03-23T10:34:47;1.20;;;1.10;;
10894;SDS011;5500;49.886;8.074;2023-03-23T10:37:17;2.50;;;1.10;;
10894;SDS011;5500;49.886;8.074;2023-03-23T10:39:46;1.27;;;1.00;;
10894;SDS011;5500;49.886;8.074;2023-03-23T10:42:22;0.97;;;0.97;;
10894;SDS011;5500;49.886;8.074;2023-03-23T10:44:51;1.20;;;1.10;;
10894;SDS011;5500;49.886;8.074;2023-03-23T10:47:18;1.50;;;1.03;;
10894;SDS011;5500;49.886;8.074;2023-03-23T10:49:45;1.47;;;1.00;;
10894;SDS011;5500;49.886;8.074;2023-03-23T10:52:20;1.03;;;0.93;;
10894;SDS011;5500;49.886;8.074;2023-03-23T10:54:55;1.83;;;0.90;;
10894;SDS011;5500;49.886;8.074;2023-03-23T10:57:25;0.70;;;0.70;;
10894;SDS011;5500;49.886;8.074;2023-03-23T10:59:57;1.63;;;1.10;;
10894;SDS011;5500;49.886;8.074;2023-03-23T11:02:26;1.03;;;1.00;;
10894;SDS011;5500;49.886;8.074;2023-03-23T11:04:56;1.17;;;0.97;;
10894;SDS011;5500;49.886;8.074;2023-03-23T11:07:25;2.03;;;0.90;;
10894;SDS011;5500;49.886;8.074;2023-03-23T11:09:55;1.17;;;0.80;;
10894;SDS011;5500;49.886;8.074;2023-03-23T11:12:25;0.80;;;0.70;;
10894;SDS011;5500;49.886;8.074;2023-03-23T11:14:51;1.10;;;0.90;;
10894;SDS011;5500;49.886;8.074;2023-03-23T11:17:22;1.30;;;1.20;;
10894;SDS011;5500;49.886;8.074;2023-03-23T11:19:50;1.40;;;0.93;;
10894;SDS011;5500;49.886;8.074;2023-03-23T11:22:22;0.70;;;0.70;;
10894;SDS011;5500;49.886;8.074;2023-03-23T11:24:52;0.90;;;0.80;;
10894;SDS011;5500;49.886;8.074;2023-03-23T11:27:20;0.87;;;0.80;;
10894;SDS011;5500;49.886;8.074;2023-03-23T11:29:50;0.90;;;0.90;;
10894;SDS011;5500;49.886;8.074;2023-03-23T11:32:18;0.80;;;0.80;;
10894;SDS011;5500;49.886;8.074;2023-03-23T11:34:53;1.60;;;1.00;;
10894;SDS011;5500;49.886;8.074;2023-03-23T11:37:24;1.33;;;1.00;;
10894;SDS011;5500;49.886;8.074;2023-03-23T11:39:55;0.87;;;0.83;;
10894;SDS011;5500;49.886;8.074;2023-03-23T11:42:23;0.70;;;0.70;;
10894;SDS011;5500;49.886;8.074;2023-03-23T11:44:54;0.77;;;0.77;;
10894;SDS011;5500;49.886;8.074;2023-03-23T11:47:40;1.80;;;0.90;;
10894;SDS011;5500;49.886;8.074;2023-03-23T11:50:12;1.10;;;0.80;;
10894;SDS011;5500;49.886;8.074;2023-03-23T11:52:43;0.77;;;0.77;;
10894;SDS011;5500;49.886;8.074;2023-03-23T11:55:13;0.83;;;0.80;;
10894;SDS011;5500;49.886;8.074;2023-03-23T11:57:42;1.17;;;1.00;;
10894;SDS011;5500;49.886;8.074;2023-03-23T12:00:15;1.73;;;1.17;;
10894;SDS011;5500;49.886;8.074;2023-03-23T12:02:46;1.03;;;0.93;;
10894;SDS011;5500;49.886;8.074;2023-03-23T12:05:36;1.00;;;0.80;;
10894;SDS011;5500;49.886;8.074;2023-03-23T12:08:15;0.90;;;0.90;;
10894;SDS011;5500;49.886;8.074;2023-03-23T12:10:51;1.43;;;0.97;;
10894;SDS011;5500;49.886;8.074;2023-03-23T12:13:29;1.17;;;0.93;;
10894;SDS011;5500;49.886;8.074;2023-03-23T12:16:08;0.77;;;0.77;;
10894;SDS011;5500;49.886;8.074;2023-03-23T12:18:46;0.87;;;0.87;;
10894;SDS011;5500;49.886;8.074;2023-03-23T12:21:18;1.07;;;1.07;;
10894;SDS011;5500;49.886;8.074;2023-03-23T12:23:49;1.47;;;1.07;;
10894;SDS011;5500;49.886;8.074;2023-03-23T12:26:23;1.03;;;0.83;;
10894;SDS011;5500;49.886;8.074;2023-03-23T12:28:59;1.57;;;1.03;;
10894;SDS011;5500;49.886;8.074;2023-03-23T12:31:46;0.80;;;0.80;;
10894;SDS011;5500;49.886;8.074;2023-03-23T12:34:20;1.00;;;0.90;;
10894;SDS011;5500;49.886;8.074;2023-03-23T12:36:55;1.17;;;1.00;;
10894;SDS011;5500;49.886;8.074;2023-03-23T12:39:44;1.20;;;1.00;;
10894;SDS011;5500;49.886;8.074;2023-03-23T12:42:19;1.10;;;1.00;;
10894;SDS011;5500;49.886;8.074;2023-03-23T12:44:52;2.53;;;1.00;;
10894;SDS011;5500;49.886;8.074;2023-03-23T12:47:23;0.90;;;0.90;;
10894;SDS011;5500;49.886;8.074;2023-03-23T12:49:58;2.90;;;0.90;;
10894;SDS011;5500;49.886;8.074;2023-03-23T12:52:28;1.33;;;0.90;;
10894;SDS011;5500;49.886;8.074;2023-03-23T12:55:00;1.30;;;1.17;;
10894;SDS011;5500;49.886;8.074;2023-03-23T12:57:31;1.10;;;1.00;;
10894;SDS011;5500;49.886;8.074;2023-03-23T13:00:02;1.17;;;0.73;;
10894;SDS011;5500;49.886;8.074;2023-03-23T13:02:39;2.43;;;1.20;;
10894;SDS011;5500;49.886;8.074;2023-03-23T13:05:09;2.30;;;1.10;;
10894;SDS011;5500;49.886;8.074;2023-03-23T13:07:41;1.10;;;1.00;;
10894;SDS011;5500;49.886;8.074;2023-03-23T13:10:12;1.20;;;0.93;;
10894;SDS011;5500;49.886;8.074;2023-03-23T13:12:46;1.93;;;0.97;;
10894;SDS011;5500;49.886;8.074;2023-03-23T13:15:20;1.00;;;1.00;;
10894;SDS011;5500;49.886;8.074;2023-03-23T13:17:56;0.90;;;0.80;;
10894;SDS011;5500;49.886;8.074;2023-03-23T13:20:38;2.70;;;1.10;;
10894;SDS011;5500;49.886;8.074;2023-03-23T13:23:09;2.20;;;1.43;;
10894;SDS011;5500;49.886;8.074;2023-03-23T13:25:45;1.27;;;1.17;;
10894;SDS011;5500;49.886;8.074;2023-03-23T13:28:16;3.17;;;1.60;;
10894;SDS011;5500;49.886;8.074;2023-03-23T13:30:59;1.13;;;1.03;;
10894;SDS011;5500;49.886;8.074;2023-03-23T13:33:35;2.00;;;1.07;;
10894;SDS011;5500;49.886;8.074;2023-03-23T13:36:03;1.80;;;1.03;;
10894;SDS011;5500;49.886;8.074;2023-03-23T13:38:33;0.93;;;0.90;;
10894;SDS011;5500;49.886;8.074;2023-03-23T13:41:05;1.87;;;1.00;;
10894;SDS011;5500;49.886;8.074;2023-03-23T13:43:35;1.03;;;0.83;;
10894;SDS011;5500;49.886;8.074;2023-03-23T13:46:07;1.30;;;1.20;;
10894;SDS011;5500;49.886;8.074;2023-03-23T13:48:45;1.77;;;1.00;;
10894;SDS011;5500;49.886;8.074;2023-03-23T13:51:24;1.73;;;0.93;;
10894;SDS011;5500;49.886;8.074;2023-03-23T13:54:04;1.73;;;1.00;;
10894;SDS011;5500;49.886;8.074;2023-03-23T13:56:35;1.17;;;1.10;;
10894;SDS011;5500;49.886;8.074;2023-03-23T13:59:07;1.20;;;1.10;;
10894;SDS011;5500;49.886;8.074;2023-03-23T14:01:39;1.87;;;1.10;;
10894;SDS011;5500;49.886;8.074;2023-03-23T14:04:10;3.13;;;1.23;;
10894;SDS011;5500;49.886;8.074;2023-03-23T14:06:40;1.20;;;1.10;;
10894;SDS011;5500;49.886;8.074;2023-03-23T14:09:11;1.00;;;0.90;;
10894;SDS011;5500;49.886;8.074;2023-03-23T14:11:47;1.10;;;1.00;;
10894;SDS011;5500;49.886;8.074;2023-03-23T14:14:20;1.00;;;0.90;;
10894;SDS011;5500;49.886;8.074;2023-03-23T14:16:51;1.40;;;1.20;;
10894;SDS011;5500;49.886;8.074;2023-03-23T14:19:24;1.80;;;1.00;;
10894;SDS011;5500;49.886;8.074;2023-03-23T14:21:52;1.57;;;1.20;;
10894;SDS011;5500;49.886;8.074;2023-03-23T14:24:21;1.77;;;1.10;;
10894;SDS011;5500;49.886;8.074;2023-03-23T14:26:53;1.60;;;1.10;;
10894;SDS011;5500;49.886;8.074;2023-03-23T14:29:28;1.07;;;0.97;;
10894;SDS011;5500;49.886;8.074;2023-03-23T14:31:56;2.00;;;1.00;;
10894;SDS011;5500;49.886;8.074;2023-03-23T14:34:26;3.80;;;1.30;;
10894;SDS011;5500;49.886;8.074;2023-03-23T14:36:55;2.07;;;1.00;;
10894;SDS011;5500;49.886;8.074;2023-03-23T14:39:23;2.23;;;1.10;;
10894;SDS011;5500;49.886;8.074;2023-03-23T14:41:52;1.27;;;1.13;;
10894;SDS011;5500;49.886;8.074;2023-03-23T14:44:22;1.97;;;0.97;;
10894;SDS011;5500;49.886;8.074;2023-03-23T14:46:50;1.57;;;1.10;;
10894;SDS011;5500;49.886;8.074;2023-03-23T14:49:27;1.40;;;1.00;;
10894;SDS011;5500;49.886;8.074;2023-03-23T14:52:02;1.33;;;0.90;;
10894;SDS011;5500;49.886;8.074;2023-03-23T14:54:31;1.20;;;1.00;;
10894;SDS011;5500;49.886;8.074;2023-03-23T14:57:02;0.83;;;0.80;;
10894;SDS011;5500;49.886;8.074;2023-03-23T14:59:31;1.30;;;0.90;;
10894;SDS011;5500;49.886;8.074;2023-03-23T15:01:58;1.40;;;1.20;;
10894;SDS011;5500;49.886;8.074;2023-03-23T15:04:27;1.30;;;1.10;;
10894;SDS011;5500;49.886;8.074;2023-03-23T15:06:55;2.20;;;1.13;;
10894;SDS011;5500;49.886;8.074;2023-03-23T15:09:25;0.90;;;0.90;;
10894;SDS011;5500;49.886;8.074;2023-03-23T15:11:54;1.00;;;1.00;;
10894;SDS011;5500;49.886;8.074;2023-03-23T15:14:23;1.30;;;0.80;;
10894;SDS011;5500;49.886;8.074;2023-03-23T15:16:52;1.13;;;0.90;;
10894;SDS011;5500;49.886;8.074;2023-03-23T15:19:23;1.37;;;1.20;;